createdAt,value
2018-06-12T00:00:26.661Z,100938.03
2018-06-12T00:01:32.098Z,100941.91
2018-06-12T00:02:37.537Z,100938.81
2018-06-12T00:03:42.981Z,100946.13
2018-06-12T00:04:48.424Z,100943.91
2018-06-12T00:05:54.024Z,100946.55
2018-06-12T00:06:59.526Z,100947.98
2018-06-12T00:08:05.095Z,100944.73
2018-06-12T00:09:10.531Z,100944.73
2018-06-12T00:10:16.704Z,100945.28
2018-06-12T00:11:22.150Z,100943.45
2018-06-12T00:12:27.565Z,100939.58
2018-06-12T00:13:33.023Z,100934.83
2018-06-12T00:14:38.570Z,100939.06
2018-06-12T00:15:44.168Z,100942.67
2018-06-12T00:16:49.643Z,100938.09
2018-06-12T00:17:55.841Z,100940.10
2018-06-12T00:19:01.405Z,100937.31
2018-06-12T00:20:06.873Z,100937.05
2018-06-12T00:21:12.374Z,100933.13
2018-06-12T00:22:17.785Z,100937.77
2018-06-12T00:23:23.254Z,100940.62
2018-06-12T00:24:28.752Z,100932.24
2018-06-12T00:25:34.178Z,100934.63
2018-06-12T00:26:39.681Z,100935.08
2018-06-12T00:27:45.129Z,100928.73
2018-06-12T00:28:50.657Z,100926.94
2018-06-12T00:29:56.165Z,100924.41
2018-06-12T00:31:01.577Z,100919.66
2018-06-12T00:32:07.085Z,100918.63
2018-06-12T00:33:12.533Z,100918.41
2018-06-12T00:34:18.049Z,100914.23
2018-06-12T00:35:23.726Z,100915.52
2018-06-12T00:36:29.241Z,100922.40
2018-06-12T00:37:35.124Z,100917.41
2018-06-12T00:38:40.603Z,100916.22
2018-06-12T00:39:46.136Z,100920.04
2018-06-12T00:40:51.815Z,100920.20
2018-06-12T00:41:57.322Z,100923.25
2018-06-12T00:43:05.291Z,100922.52
2018-06-12T00:44:13.967Z,100919.94
2018-06-12T00:45:26.052Z,100921.02
2018-06-12T00:46:36.208Z,100923.92
2018-06-12T00:47:44.478Z,100919.02
2018-06-12T00:48:59.594Z,100922.67
2018-06-12T00:50:05.853Z,100921.12
2018-06-12T00:51:11.426Z,100917.67
2018-06-12T00:52:16.838Z,100917.25
2018-06-12T00:53:22.768Z,100913.38
2018-06-12T00:54:28.170Z,100917.97
2018-06-12T00:55:33.593Z,100911.63
2018-06-12T00:56:56.047Z,100907.44
2018-06-12T00:58:01.595Z,100911.26
2018-06-12T00:59:06.973Z,100910.19
2018-06-12T01:00:12.417Z,100907.28
2018-06-12T01:01:17.953Z,100902.28
2018-06-12T01:02:23.486Z,100900.67
2018-06-12T01:03:28.931Z,100908.68
2018-06-12T01:04:34.378Z,100904.45
2018-06-12T01:05:39.804Z,100912.90
2018-06-12T01:06:45.662Z,100915.42
2018-06-12T01:07:51.131Z,100918.73
2018-06-12T01:08:56.536Z,100920.50
2018-06-12T01:10:02.124Z,100922.25
2018-06-12T01:11:07.689Z,100917.70
2018-06-12T01:12:13.267Z,100916.81
2018-06-12T01:13:18.862Z,100918.56
2018-06-12T01:14:24.281Z,100924.82
2018-06-12T01:15:29.722Z,100922.65
2018-06-12T01:16:35.130Z,100920.07
2018-06-12T01:17:40.717Z,100921.31
2018-06-12T01:18:46.561Z,100925.60
2018-06-12T01:19:52.609Z,100927.97
2018-06-12T01:20:58.090Z,100925.55
2018-06-12T01:22:03.520Z,100927.92
2018-06-12T01:23:08.947Z,100920.91
2018-06-12T01:24:14.512Z,100922.70
2018-06-12T01:25:20.003Z,100923.98
2018-06-12T01:26:25.445Z,100924.05
2018-06-12T01:27:30.862Z,100923.91
2018-06-12T01:28:36.342Z,100925.25
2018-06-12T01:29:41.758Z,100927.35
2018-06-12T01:30:47.307Z,100926.44
2018-06-12T01:31:52.882Z,100925.20
2018-06-12T01:32:58.921Z,100927.27
2018-06-12T01:34:04.383Z,100924.31
2018-06-12T01:35:09.817Z,100925.50
2018-06-12T01:36:15.351Z,100927.78
2018-06-12T01:37:20.788Z,100919.69
2018-06-12T01:38:26.447Z,100920.20
2018-06-12T01:39:31.987Z,100919.47
2018-06-12T01:40:37.418Z,100922.16
2018-06-12T01:41:42.933Z,100924.84
2018-06-12T01:42:48.522Z,100918.40
2018-06-12T01:43:53.998Z,100923.64
2018-06-12T01:44:59.400Z,100926.65
2018-06-12T01:46:05.115Z,100925.50
2018-06-12T01:47:10.893Z,100924.84
2018-06-12T01:48:16.326Z,100924.84
2018-06-12T01:49:21.830Z,100924.47
2018-06-12T01:50:27.225Z,100924.42
2018-06-12T01:51:32.689Z,100924.98
2018-06-12T01:52:38.169Z,100929.13
2018-06-12T01:53:43.581Z,100933.20
2018-06-12T01:54:49.454Z,100931.91
2018-06-12T01:55:54.857Z,100928.09
2018-06-12T01:57:00.305Z,100939.81
2018-06-12T01:58:05.730Z,100934.19
2018-06-12T01:59:11.270Z,100934.19
2018-06-12T02:00:16.805Z,100933.97
2018-06-12T02:01:22.249Z,100932.38
2018-06-12T02:02:27.672Z,100933.67
2018-06-12T02:03:33.100Z,100931.77
2018-06-12T02:04:38.539Z,100935.27
2018-06-12T02:05:44.522Z,100928.41
2018-06-12T02:06:49.942Z,100929.95
2018-06-12T02:07:55.400Z,100928.56
2018-06-12T02:09:00.851Z,100935.63
2018-06-12T02:10:06.365Z,100935.83
2018-06-12T02:11:11.869Z,100939.13
2018-06-12T02:12:17.303Z,100942.95
2018-06-12T02:13:22.696Z,100947.91
2018-06-12T02:14:28.229Z,100949.50
2018-06-12T02:15:34.101Z,100946.92
2018-06-12T02:16:39.481Z,100948.69
2018-06-12T02:17:44.898Z,100947.03
2018-06-12T02:18:50.353Z,100945.20
2018-06-12T02:19:55.761Z,100941.08
2018-06-12T02:21:01.218Z,100940.62
2018-06-12T02:22:07.191Z,100942.83
2018-06-12T02:23:12.731Z,100943.59
2018-06-12T02:24:18.204Z,100940.81
2018-06-12T02:25:23.949Z,100946.64
2018-06-12T02:26:29.363Z,100943.97
2018-06-12T02:27:34.805Z,100949.54
2018-06-12T02:28:40.467Z,100948.66
2018-06-12T02:29:46.188Z,100945.20
2018-06-12T02:30:51.617Z,100947.73
2018-06-12T02:31:57.112Z,100954.19
2018-06-12T02:33:02.568Z,100952.37
2018-06-12T02:34:07.999Z,100950.34
2018-06-12T02:35:13.422Z,100950.23
2018-06-12T02:36:18.851Z,100953.70
2018-06-12T02:37:24.735Z,100944.98
2018-06-12T02:38:30.142Z,100950.61
2018-06-12T02:39:35.582Z,100947.25
2018-06-12T02:40:40.974Z,100945.56
2018-06-12T02:41:46.386Z,100949.66
2018-06-12T02:42:52.073Z,100943.58
2018-06-12T02:43:57.511Z,100944.50
2018-06-12T02:45:03.078Z,100940.53
2018-06-12T02:46:08.490Z,100944.50
2018-06-12T02:47:13.943Z,100939.77
2018-06-12T02:48:19.354Z,100939.65
2018-06-12T02:49:24.911Z,100941.71
2018-06-12T02:50:30.348Z,100939.84
2018-06-12T02:51:35.759Z,100938.16
2018-06-12T02:52:41.148Z,100939.84
2018-06-12T02:53:46.807Z,100940.62
2018-06-12T02:54:52.425Z,100939.84
2018-06-12T02:55:57.826Z,100945.42
2018-06-12T02:57:03.231Z,100940.97
2018-06-12T02:58:08.634Z,100941.39
2018-06-12T02:59:14.052Z,100938.87
2018-06-12T03:00:19.510Z,100942.89
2018-06-12T03:01:32.108Z,100938.30
2018-06-12T03:02:37.613Z,100941.34
2018-06-12T03:03:43.024Z,100936.17
2018-06-12T03:04:48.433Z,100937.87
2018-06-12T03:05:53.905Z,100941.14
2018-06-12T03:06:59.314Z,100935.91
2018-06-12T03:08:04.809Z,100941.80
2018-06-12T03:09:10.510Z,100942.37
2018-06-12T03:10:15.983Z,100933.64
2018-06-12T03:11:21.402Z,100933.27
2018-06-12T03:12:26.920Z,100937.09
2018-06-12T03:13:32.304Z,100935.45
2018-06-12T03:14:37.852Z,100935.86
2018-06-12T03:15:43.249Z,100933.64
2018-06-12T03:16:49.128Z,100932.70
2018-06-12T03:17:54.500Z,100941.85
2018-06-12T03:18:59.896Z,100939.79
2018-06-12T03:20:05.353Z,100937.58
2018-06-12T03:21:10.762Z,100938.50
2018-06-12T03:22:16.247Z,100937.27
2018-06-12T03:23:21.710Z,100938.95
2018-06-12T03:24:26.766Z,100943.20
2018-06-12T03:25:32.085Z,100937.53
2018-06-12T03:26:37.550Z,100935.47
2018-06-12T03:27:42.960Z,100936.92
2018-06-12T03:28:48.597Z,100934.23
2018-06-12T03:29:53.996Z,100938.47
2018-06-12T03:30:59.441Z,100935.89
2018-06-12T03:32:05.231Z,100933.83
2018-06-12T03:33:10.666Z,100938.05
2018-06-12T03:34:16.132Z,100935.77
2018-06-12T03:35:21.553Z,100936.61
2018-06-12T03:36:27.017Z,100933.14
2018-06-12T03:37:32.437Z,100932.10
2018-06-12T03:38:37.828Z,100933.97
2018-06-12T03:39:43.256Z,100931.78
2018-06-12T03:40:48.710Z,100928.80
2018-06-12T03:41:54.218Z,100932.16
2018-06-12T03:42:59.635Z,100931.13
2018-06-12T03:44:05.093Z,100928.11
2018-06-12T03:45:10.525Z,100927.11
2018-06-12T03:46:16.162Z,100925.45
2018-06-12T03:47:21.557Z,100929.00
2018-06-12T03:48:27.324Z,100937.12
2018-06-12T03:49:32.739Z,100928.48
2018-06-12T03:50:38.162Z,100930.98
2018-06-12T03:51:43.589Z,100932.16
2018-06-12T03:52:49.046Z,100936.61
2018-06-12T03:53:54.757Z,100937.90
2018-06-12T03:55:00.161Z,100934.95
2018-06-12T03:56:05.677Z,100935.37
2018-06-12T03:57:11.096Z,100936.30
2018-06-12T03:58:16.533Z,100930.67
2018-06-12T03:59:21.964Z,100934.59
2018-06-12T04:00:27.405Z,100937.59
2018-06-12T04:01:32.866Z,100938.73
2018-06-12T04:02:38.359Z,100930.30
2018-06-12T04:03:43.810Z,100925.64
2018-06-12T04:04:49.297Z,100930.20
2018-06-12T04:05:54.717Z,100938.98
2018-06-12T04:07:00.150Z,100933.71
2018-06-12T04:08:05.817Z,100933.20
2018-06-12T04:09:11.285Z,100933.85
2018-06-12T04:10:16.794Z,100934.11
2018-06-12T04:11:22.274Z,100930.48
2018-06-12T04:12:27.725Z,100929.72
2018-06-12T04:13:33.158Z,100930.23
2018-06-12T04:14:39.042Z,100932.41
2018-06-12T04:15:44.465Z,100932.88
2018-06-12T04:16:49.903Z,100935.80
2018-06-12T04:17:55.365Z,100938.17
2018-06-12T04:19:00.797Z,100934.70
2018-06-12T04:20:06.326Z,100938.30
2018-06-12T04:21:12.081Z,100936.57
2018-06-12T04:22:17.620Z,100936.83
2018-06-12T04:23:23.079Z,100938.52
2018-06-12T04:24:28.570Z,100934.12
2018-06-12T04:25:33.993Z,100936.11
2018-06-12T04:26:39.436Z,100935.45
2018-06-12T04:27:45.225Z,100940.31
2018-06-12T04:28:50.726Z,100931.78
2018-06-12T04:29:56.453Z,100938.87
2018-06-12T04:31:01.846Z,100936.09
2018-06-12T04:32:07.298Z,100940.05
2018-06-12T04:33:12.770Z,100936.89
2018-06-12T04:34:18.318Z,100938.52
2018-06-12T04:35:23.726Z,100944.58
2018-06-12T04:36:29.255Z,100937.41
2018-06-12T04:37:34.640Z,100940.51
2018-06-12T04:38:40.041Z,100942.83
2018-06-12T04:39:45.744Z,100943.83
2018-06-12T04:40:53.982Z,100943.61
2018-06-12T04:41:59.427Z,100944.00
2018-06-12T04:43:05.028Z,100949.36
2018-06-12T04:44:10.450Z,100956.59
2018-06-12T04:45:15.994Z,100947.38
2018-06-12T04:46:21.427Z,100950.91
2018-06-12T04:47:26.846Z,100951.05
2018-06-12T04:48:32.419Z,100953.35
2018-06-12T04:49:37.812Z,100951.75
2018-06-12T04:50:43.418Z,100947.81
2018-06-12T04:51:49.110Z,100953.75
2018-06-12T04:52:54.558Z,100953.35
2018-06-12T04:53:59.953Z,100958.09
2018-06-12T04:55:05.722Z,100959.23
2018-06-12T04:56:11.166Z,100959.75
2018-06-12T04:57:16.618Z,100966.67
2018-06-12T04:58:22.086Z,100966.73
2018-06-12T04:59:27.488Z,100970.43
2018-06-12T05:00:32.898Z,100965.52
2018-06-12T05:01:38.293Z,100972.28
2018-06-12T05:02:43.714Z,100969.32
2018-06-12T05:03:49.344Z,100970.41
2018-06-12T05:04:54.777Z,100966.67
2018-06-12T05:06:00.365Z,100972.32
2018-06-12T05:07:05.802Z,100972.57
2018-06-12T05:08:11.285Z,100971.28
2018-06-12T05:09:16.685Z,100967.09
2018-06-12T05:10:22.250Z,100963.91
2018-06-12T05:11:27.730Z,100970.69
2018-06-12T05:12:33.143Z,100970.56
2018-06-12T05:13:38.614Z,100970.11
2018-06-12T05:14:44.042Z,100972.45
2018-06-12T05:15:50.211Z,100970.95
2018-06-12T05:16:55.630Z,100961.84
2018-06-12T05:18:01.035Z,100965.78
2018-06-12T05:19:06.466Z,100964.89
2018-06-12T05:20:11.890Z,100966.42
2018-06-12T05:21:17.509Z,100961.66
2018-06-12T05:22:23.044Z,100964.95
2018-06-12T05:23:28.477Z,100969.57
2018-06-12T05:24:33.877Z,100972.98
2018-06-12T05:25:39.383Z,100974.40
2018-06-12T05:26:46.371Z,100975.53
2018-06-12T05:27:51.809Z,100969.35
2018-06-12T05:28:57.253Z,100971.59
2018-06-12T05:30:02.717Z,100970.61
2018-06-12T05:31:10.046Z,100978.30
2018-06-12T05:32:16.086Z,100975.19
2018-06-12T05:33:21.643Z,100974.54
2018-06-12T05:34:27.056Z,100971.95
2018-06-12T05:35:32.517Z,100972.23
2018-06-12T05:36:37.973Z,100971.84
2018-06-12T05:37:43.431Z,100970.54
2018-06-12T05:38:49.033Z,100974.05
2018-06-12T05:39:54.437Z,100971.00
2018-06-12T05:40:59.845Z,100974.05
2018-06-12T05:42:05.282Z,100973.99
2018-06-12T05:43:10.689Z,100979.01
2018-06-12T05:44:16.185Z,100972.41
2018-06-12T05:45:21.597Z,100973.41
2018-06-12T05:46:26.992Z,100972.66
2018-06-12T05:47:32.401Z,100976.65
2018-06-12T05:48:38.302Z,100971.06
2018-06-12T05:49:43.730Z,100975.52
2018-06-12T05:50:49.130Z,100980.99
2018-06-12T05:51:54.568Z,100974.86
2018-06-12T05:52:59.982Z,100974.20
2018-06-12T05:54:05.615Z,100979.48
2018-06-12T05:55:11.075Z,100974.47
2018-06-12T05:56:16.510Z,100973.54
2018-06-12T05:57:21.934Z,100976.06
2018-06-12T05:58:27.343Z,100971.98
2018-06-12T05:59:32.781Z,100976.80
2018-06-12T06:00:38.230Z,100973.80
2018-06-12T06:01:43.646Z,100976.30
2018-06-12T06:02:49.105Z,100971.12
2018-06-12T06:03:54.628Z,100982.10
2018-06-12T06:05:00.020Z,100974.41
2018-06-12T06:06:05.438Z,100983.93
2018-06-12T06:07:10.843Z,100981.64
2018-06-12T06:08:16.226Z,100984.56
2018-06-12T06:09:21.686Z,100980.70
2018-06-12T06:10:27.313Z,100984.89
2018-06-12T06:11:32.790Z,100986.42
2018-06-12T06:12:38.287Z,100980.58
2018-06-12T06:13:43.689Z,100979.75
2018-06-12T06:14:49.150Z,100985.75
2018-06-12T06:15:54.904Z,100988.55
2018-06-12T06:17:00.535Z,100985.66
2018-06-12T06:18:05.940Z,100994.72
2018-06-12T06:19:11.342Z,100985.59
2018-06-12T06:20:16.746Z,100990.13
2018-06-12T06:21:22.238Z,100989.77
2018-06-12T06:22:27.702Z,100986.98
2018-06-12T06:23:33.105Z,100992.42
2018-06-12T06:24:38.493Z,100986.67
2018-06-12T06:25:43.910Z,100987.31
2018-06-12T06:26:49.410Z,100983.52
2018-06-12T06:27:55.354Z,100989.86
2018-06-12T06:29:00.759Z,100986.20
2018-06-12T06:30:06.464Z,100990.73
2018-06-12T06:31:11.921Z,100990.27
2018-06-12T06:32:17.911Z,100990.22
2018-06-12T06:33:23.361Z,100991.74
2018-06-12T06:34:28.964Z,100995.16
2018-06-12T06:35:34.409Z,100995.23
2018-06-12T06:36:40.913Z,100996.33
2018-06-12T06:37:46.305Z,101000.41
2018-06-12T06:38:52.393Z,100991.70
2018-06-12T06:39:57.832Z,100999.86
2018-06-12T06:41:03.322Z,100998.03
2018-06-12T06:42:08.773Z,100993.16
2018-06-12T06:43:13.878Z,100994.75
2018-06-12T06:44:19.522Z,100997.09
2018-06-12T06:45:25.461Z,101000.97
2018-06-12T06:46:30.869Z,100999.92
2018-06-12T06:47:36.348Z,100999.70
2018-06-12T06:48:41.941Z,100993.56
2018-06-12T06:49:47.342Z,101000.16
2018-06-12T06:50:52.928Z,100990.45
2018-06-12T06:51:58.545Z,100994.38
2018-06-12T06:53:03.657Z,100999.39
2018-06-12T06:54:08.991Z,100996.61
2018-06-12T06:55:14.450Z,100998.83
2018-06-12T06:56:19.850Z,100997.34
2018-06-12T06:57:25.275Z,100996.55
2018-06-12T06:58:30.906Z,100999.14
2018-06-12T06:59:36.345Z,100997.57
2018-06-12T07:00:42.127Z,100998.64
2018-06-12T07:01:47.551Z,101000.95
2018-06-12T07:02:53.342Z,101002.95
2018-06-12T07:03:58.890Z,100993.02
2018-06-12T07:05:04.335Z,100999.29
2018-06-12T07:06:09.937Z,100996.86
2018-06-12T07:07:15.335Z,101001.74
2018-06-12T07:08:20.799Z,101001.44
2018-06-12T07:09:26.215Z,100996.39
2018-06-12T07:10:31.631Z,100999.75
2018-06-12T07:11:37.061Z,100999.98
2018-06-12T07:12:42.898Z,100997.33
2018-06-12T07:13:48.296Z,100998.70
2018-06-12T07:14:54.096Z,101000.16
2018-06-12T07:15:59.468Z,100993.97
2018-06-12T07:17:04.961Z,100996.61
2018-06-12T07:18:10.427Z,101001.19
2018-06-12T07:19:15.842Z,100988.86
2018-06-12T07:21:32.286Z,100994.25
2018-06-12T07:22:37.708Z,100985.34
2018-06-12T07:23:43.170Z,100994.71
2018-06-12T07:24:48.674Z,100992.05
2018-06-12T07:25:54.077Z,100990.16
2018-06-12T07:26:59.538Z,100989.09
2018-06-12T07:28:04.986Z,100988.11
2018-06-12T07:29:10.440Z,100991.32
2018-06-12T07:30:15.886Z,100991.32
2018-06-12T07:31:21.280Z,100992.46
2018-06-12T07:32:26.685Z,100988.19
2018-06-12T07:33:32.081Z,100992.72
2018-06-12T07:34:38.038Z,100994.48
2018-06-12T07:35:43.471Z,100994.17
2018-06-12T07:36:48.891Z,100994.41
2018-06-12T07:37:54.329Z,100992.97
2018-06-12T07:38:59.921Z,100990.41
2018-06-12T07:40:05.725Z,100987.90
2018-06-12T07:41:12.111Z,100986.00
2018-06-12T07:42:17.974Z,100992.06
2018-06-12T07:43:24.316Z,100986.52
2018-06-12T07:44:29.778Z,100987.12
2018-06-12T07:45:35.165Z,100987.72
2018-06-12T07:46:40.595Z,100980.22
2018-06-12T07:47:45.994Z,100982.98
2018-06-12T07:48:51.521Z,100979.88
2018-06-12T07:49:57.079Z,100984.77
2018-06-12T07:51:02.582Z,100984.69
2018-06-12T07:52:08.445Z,100982.26
2018-06-12T07:53:13.916Z,100984.67
2018-06-12T07:54:19.325Z,100982.44
2018-06-12T07:55:24.745Z,100981.72
2018-06-12T07:56:31.246Z,100979.20
2018-06-12T07:57:36.810Z,100977.50
2018-06-12T07:58:42.285Z,100984.62
2018-06-12T07:59:47.689Z,100985.49
2018-06-12T08:00:53.270Z,100990.80
2018-06-12T08:01:58.670Z,100987.52
2018-06-12T08:03:04.165Z,100985.10
2018-06-12T08:04:10.224Z,100984.20
2018-06-12T08:05:15.677Z,100985.31
2018-06-12T08:06:21.342Z,100988.58
2018-06-12T08:07:26.942Z,100983.70
2018-06-12T08:08:32.701Z,100989.66
2018-06-12T08:09:38.121Z,100989.12
2018-06-12T08:10:43.557Z,100982.63
2018-06-12T08:11:49.032Z,100991.48
2018-06-12T08:12:54.507Z,100988.64
2018-06-12T08:13:59.881Z,100990.01
2018-06-12T08:15:05.426Z,100988.64
2018-06-12T08:16:10.837Z,100986.80
2018-06-12T08:17:16.308Z,100990.54
2018-06-12T08:18:21.834Z,100983.85
2018-06-12T08:19:27.222Z,100985.52
2018-06-12T08:20:32.706Z,100984.61
2018-06-12T08:21:38.138Z,100986.98
2018-06-12T08:22:43.734Z,100986.50
2018-06-12T08:23:49.778Z,100987.52
2018-06-12T08:24:55.191Z,100987.34
2018-06-12T08:26:00.745Z,100992.87
2018-06-12T08:27:06.188Z,100981.47
2018-06-12T08:28:11.616Z,100986.34
2018-06-12T08:29:17.029Z,100986.87
2018-06-12T08:30:22.608Z,100992.36
2018-06-12T08:31:28.506Z,100988.83
2018-06-12T08:32:33.960Z,100987.74
2018-06-12T08:33:39.781Z,100992.98
2018-06-12T08:34:45.196Z,100995.30
2018-06-12T08:35:50.826Z,100991.48
2018-06-12T08:36:56.688Z,100987.85
2018-06-12T08:38:02.267Z,100986.09
2018-06-12T08:39:09.038Z,100990.20
2018-06-12T08:40:14.473Z,100987.85
2018-06-12T08:41:20.070Z,100982.72
2018-06-12T08:42:25.909Z,100987.47
2018-06-12T08:43:31.381Z,100985.16
2018-06-12T08:44:37.013Z,100983.44
2018-06-12T08:45:42.423Z,100983.08
2018-06-12T08:46:47.854Z,100982.30
2018-06-12T08:47:53.333Z,100991.84
2018-06-12T08:48:58.737Z,100984.14
2018-06-12T08:50:04.373Z,100989.66
2018-06-12T08:51:09.801Z,100992.52
2018-06-12T08:52:15.233Z,100986.22
2018-06-12T08:53:20.662Z,100985.94
2018-06-12T08:54:25.745Z,100989.20
2018-06-12T08:55:31.082Z,100986.50
2018-06-12T08:56:36.485Z,100984.69
2018-06-12T08:57:42.207Z,100984.87
2018-06-12T08:58:47.778Z,100982.95
2018-06-12T08:59:53.286Z,100983.93
2018-06-12T09:00:58.713Z,100980.97
2018-06-12T09:02:04.225Z,100979.98
2018-06-12T09:03:09.737Z,100985.47
2018-06-12T09:04:15.160Z,100984.77
2018-06-12T09:05:20.606Z,100980.02
2018-06-12T09:06:26.098Z,100981.36
2018-06-12T09:07:31.529Z,100980.11
2018-06-12T09:08:36.949Z,100986.50
2018-06-12T09:09:42.933Z,100992.57
2018-06-12T09:10:48.396Z,100986.67
2018-06-12T09:11:53.922Z,100986.75
2018-06-12T09:12:59.351Z,100989.19
2018-06-12T09:14:05.038Z,100995.37
2018-06-12T09:15:10.497Z,100987.22
2018-06-12T09:16:15.938Z,100987.42
2018-06-12T09:17:21.377Z,100992.45
2018-06-12T09:18:26.895Z,100991.59
2018-06-12T09:19:32.686Z,100991.58
2018-06-12T09:20:38.177Z,100995.55
2018-06-12T09:21:43.593Z,100996.61
2018-06-12T09:22:49.090Z,100997.55
2018-06-12T09:23:54.652Z,101000.38
2018-06-12T09:25:00.105Z,101005.39
2018-06-12T09:26:05.799Z,101006.24
2018-06-12T09:27:11.252Z,101002.90
2018-06-12T09:28:17.234Z,101004.80
2018-06-12T09:29:22.690Z,101007.34
2018-06-12T09:30:28.094Z,101002.34
2018-06-12T09:31:33.506Z,101000.18
2018-06-12T09:32:38.982Z,101011.62
2018-06-12T09:33:44.418Z,101015.09
2018-06-12T09:34:49.858Z,101007.75
2018-06-12T09:35:59.346Z,101011.66
2018-06-12T09:37:05.016Z,101015.92
2018-06-12T09:38:10.919Z,101017.92
2018-06-12T09:39:16.394Z,101013.86
2018-06-12T09:40:21.793Z,101020.05
2018-06-12T09:41:27.254Z,101020.99
2018-06-12T09:42:32.661Z,101022.02
2018-06-12T09:43:38.200Z,101020.46
2018-06-12T09:44:43.611Z,101021.59
2018-06-12T09:45:49.234Z,101025.72
2018-06-12T09:46:54.814Z,101022.28
2018-06-12T09:48:00.247Z,101023.55
2018-06-12T09:49:05.761Z,101022.56
2018-06-12T09:50:11.357Z,101020.28
2018-06-12T09:51:16.827Z,101019.06
2018-06-12T09:52:25.077Z,101016.94
2018-06-12T09:53:30.796Z,101022.89
2018-06-12T09:54:36.278Z,101019.89
2018-06-12T09:55:41.753Z,101018.35
2018-06-12T09:56:47.296Z,101016.34
2018-06-12T09:57:52.774Z,101014.76
2018-06-12T09:58:58.264Z,101019.00
2018-06-12T10:00:03.715Z,101019.41
2018-06-12T10:01:14.421Z,101019.60
2018-06-12T10:02:19.863Z,101022.36
2018-06-12T10:03:25.294Z,101028.34
2018-06-12T10:04:30.730Z,101033.94
2018-06-12T10:05:36.166Z,101029.38
2018-06-12T10:06:41.629Z,101029.19
2018-06-12T10:07:47.114Z,101027.53
2018-06-12T10:08:52.654Z,101028.21
2018-06-12T10:09:58.073Z,101024.38
2018-06-12T10:11:03.497Z,101025.11
2018-06-12T10:12:08.933Z,101026.38
2018-06-12T10:13:14.480Z,101021.81
2018-06-12T10:14:19.910Z,101027.81
2018-06-12T10:15:25.367Z,101027.02
2018-06-12T10:16:30.768Z,101024.38
2018-06-12T10:17:41.961Z,101024.34
2018-06-12T10:18:47.473Z,101027.29
2018-06-12T10:19:53.386Z,101022.12
2018-06-12T10:20:58.819Z,101023.98
2018-06-12T10:22:05.071Z,101024.03
2018-06-12T10:23:10.497Z,101029.28
2018-06-12T10:24:16.317Z,101026.59
2018-06-12T10:25:21.725Z,101027.68
2018-06-12T10:26:27.425Z,101028.33
2018-06-12T10:27:32.866Z,101030.48
2018-06-12T10:28:38.297Z,101025.45
2018-06-12T10:29:43.731Z,101027.19
2018-06-12T10:30:49.161Z,101034.67
2018-06-12T10:31:54.573Z,101027.06
2018-06-12T10:33:00.053Z,101027.34
2018-06-12T10:34:05.473Z,101027.28
2018-06-12T10:35:10.938Z,101034.69
2018-06-12T10:36:16.369Z,101027.27
2018-06-12T10:37:21.895Z,101025.42
2018-06-12T10:38:27.304Z,101026.16
2018-06-12T10:39:33.726Z,101027.41
2018-06-12T10:40:39.166Z,101025.55
2018-06-12T10:41:44.663Z,101023.94
2018-06-12T10:42:50.079Z,101023.94
2018-06-12T10:43:55.563Z,101025.30
2018-06-12T10:45:01.045Z,101028.64
2018-06-12T10:46:07.013Z,101023.45
2018-06-12T10:47:12.429Z,101025.04
2018-06-12T10:48:17.890Z,101021.34
2018-06-12T10:49:23.362Z,101022.91
2018-06-12T10:50:29.026Z,101022.20
2018-06-12T10:51:34.460Z,101022.47
2018-06-12T10:52:39.878Z,101028.07
2018-06-12T10:53:45.300Z,101023.11
2018-06-12T10:54:50.728Z,101026.51
2018-06-12T10:55:56.430Z,101028.18
2018-06-12T10:57:02.048Z,101027.63
2018-06-12T10:58:07.681Z,101022.52
2018-06-12T10:59:13.086Z,101025.81
2018-06-12T11:00:18.584Z,101022.86
2018-06-12T11:01:24.079Z,101024.42
2018-06-12T11:02:29.730Z,101019.40
2018-06-12T11:03:35.207Z,101022.30
2018-06-12T11:04:40.637Z,101027.80
2018-06-12T11:05:46.075Z,101027.39
2018-06-12T11:06:51.833Z,101025.19
2018-06-12T11:07:57.769Z,101029.16
2018-06-12T11:09:03.257Z,101027.09
2018-06-12T11:10:08.913Z,101017.87
2018-06-12T11:11:14.325Z,101029.33
2018-06-12T11:12:19.743Z,101028.27
2018-06-12T11:13:25.249Z,101017.72
2018-06-12T11:14:30.695Z,101020.90
2018-06-12T11:15:36.749Z,101017.42
2018-06-12T11:16:42.295Z,101019.91
2018-06-12T11:17:47.719Z,101014.78
2018-06-12T11:18:53.205Z,101023.50
2018-06-12T11:19:58.702Z,101019.36
2018-06-12T11:21:04.114Z,101019.42
2018-06-12T11:22:09.705Z,101016.70
2018-06-12T11:23:15.119Z,101015.84
2018-06-12T11:24:20.992Z,101011.95
2018-06-12T11:25:26.421Z,101010.52
2018-06-12T11:26:31.961Z,101008.64
2018-06-12T11:27:37.419Z,101014.38
2018-06-12T11:28:42.826Z,101012.84
2018-06-12T11:29:48.386Z,101017.80
2018-06-12T11:30:53.877Z,101013.76
2018-06-12T11:31:59.033Z,101013.52
2018-06-12T11:33:04.441Z,101013.03
2018-06-12T11:34:16.522Z,101019.87
2018-06-12T11:35:21.992Z,101017.33
2018-06-12T11:36:27.582Z,101013.02
2018-06-12T11:37:33.434Z,101016.61
2018-06-12T11:38:38.830Z,101012.42
2018-06-12T11:39:44.260Z,101017.98
2018-06-12T11:40:49.806Z,101018.03
2018-06-12T11:41:55.709Z,101021.59
2018-06-12T11:43:01.553Z,101014.66
2018-06-12T11:44:07.071Z,101015.57
2018-06-12T11:45:12.488Z,101023.60
2018-06-12T11:46:17.901Z,101020.13
2018-06-12T11:47:23.346Z,101021.91
2018-06-12T11:48:28.968Z,101020.07
2018-06-12T11:49:34.375Z,101014.23
2018-06-12T11:50:39.801Z,101009.30
2018-06-12T11:51:45.265Z,101020.64
2018-06-12T11:52:50.723Z,101019.50
2018-06-12T11:53:56.199Z,101019.35
2018-06-12T11:55:01.675Z,101022.94
2018-06-12T11:56:07.211Z,101020.51
2018-06-12T11:57:12.646Z,101018.91
2018-06-12T11:58:18.092Z,101017.92
2018-06-12T11:59:23.610Z,101016.50
2018-06-12T12:00:29.047Z,101021.84
2018-06-12T12:01:34.478Z,101011.83
2018-06-12T12:02:40.201Z,101018.65
2018-06-12T12:03:45.650Z,101015.27
2018-06-12T12:04:52.183Z,101012.05
2018-06-12T12:05:57.676Z,101014.30
2018-06-12T12:07:03.359Z,101009.27
2018-06-12T12:08:08.789Z,101018.29
2018-06-12T12:09:14.270Z,101013.73
2018-06-12T12:10:19.720Z,101017.32
2018-06-12T12:11:25.174Z,101017.59
2018-06-12T12:12:30.594Z,101021.59
2018-06-12T12:13:36.070Z,101026.05
2018-06-12T12:14:41.749Z,101021.30
2018-06-12T12:15:47.149Z,101024.38
2018-06-12T12:16:52.832Z,101025.31
2018-06-12T12:17:58.959Z,101027.55
2018-06-12T12:19:04.458Z,101025.80
2018-06-12T12:20:09.877Z,101018.30
2018-06-12T12:21:15.305Z,101017.65
2018-06-12T12:22:21.170Z,101014.96
2018-06-12T12:23:26.660Z,101020.73
2018-06-12T12:24:32.076Z,101020.26
2018-06-12T12:25:37.474Z,101017.09
2018-06-12T12:26:42.921Z,101018.77
2018-06-12T12:27:48.607Z,101015.22
2018-06-12T12:28:54.080Z,101016.60
2018-06-12T12:29:59.548Z,101018.86